FQMA

Maputo Airport

Maputo, Mozambique
TAF FQMA 211600Z 2118/2224 VRB03KT 9999 FEW025 BECMG 2200/2202 22006KT SCT025 BECMG 2208/2210 15008KT BECMG 2212/2214 08012KT CAVOK BECMG 2218/2220 35008KT TX27/2213Z TN13/2203Z
Issued Valid From Valid To
Jul-21 @ 16:00 UTC
(7 hours ago)
Jul-21 @ 18:00 UTC
(5 hours ago)
Jul-23 @ 00:00 UTC
(-1 days ago)
Jul-21 @ 18:00 to Jul-22 @ 00:00
TAF FQMA 211600Z 2118/2224 VRB03KT 9999 FEW025
Wind Visibility Clouds
Variable at 3 knots 10,000+ meters
  • Few at 2,500' AGL
Becoming Jul-22 @ 00:00 to Jul-22 @ 08:00
BECMG 2200/2202 22006KT SCT025
Wind Visibility Clouds
220° at 6 knots 10,000+ meters
  • Scattered at 2,500' AGL
Becoming Jul-22 @ 08:00 to Jul-22 @ 12:00
BECMG 2208/2210 15008KT
Wind Visibility Clouds
150° at 8 knots 10,000+ meters
  • Scattered at 2,500' AGL
Becoming Jul-22 @ 12:00 to Jul-22 @ 18:00
BECMG 2212/2214 08012KT CAVOK
Wind Visibility Clouds Conditions
80° at 12 knots 10,000+ meters
  • No significant clouds
Becoming Jul-22 @ 18:00 to Jul-23 @ 00:00
BECMG 2218/2220 35008KT TX27/2213Z TN13/2203Z
Wind Visibility Clouds Conditions
350° at 8 knots 10,000+ meters
  • No significant clouds
TAF FQMA 211600Z 2118/2224 VRB03KT 9999 FEW025 BECMG 2200/2202 22006KT SCT025 BECMG 2208/2210 15008KT BECMG 2212/2214 08012KT CAVOK BECMG 2218/2220 35008KT TX27/2213Z TN13/2203Z
Issued Jul-21 @ 16:00 UTC
(7 hours ago)
Valid From Jul-21 @ 18:00 UTC
(5 hours ago)
Valid To Jul-23 @ 00:00 UTC
(-1 days ago)
Jul-21 @ 18:00 - Jul-22 @ 00:00
Wind Visibility
Variable at 3 knots 10,000+ meters
Clouds
  • Few at 2,500' AGL
Becoming Jul-22 @ 00:00 - Jul-22 @ 08:00
Wind Visibility
220° at 6 knots 10,000+ meters
Clouds
  • Scattered at 2,500' AGL
Becoming Jul-22 @ 08:00 - Jul-22 @ 12:00
Wind Visibility
150° at 8 knots 10,000+ meters
Clouds
  • Scattered at 2,500' AGL
Becoming Jul-22 @ 12:00 - Jul-22 @ 18:00
Wind Visibility
80° at 12 knots 10,000+ meters
Clouds
  • No significant clouds
Conditions
Becoming Jul-22 @ 18:00 - Jul-23 @ 00:00
Wind Visibility
350° at 8 knots 10,000+ meters
Clouds
  • No significant clouds
Conditions